Time,TemperatureF,DewpointF,PressureIn,WindDirection,WindDirectionDegrees,WindSpeedMPH,WindSpeedGustMPH,Humidity,HourlyPrecipIn,Conditions,Clouds,dailyrainin,SoftwareType,DateUTC
2013-09-19 00:00:00,55.0,49.3,30.29,West,270,0.0,0.0,81,0.00,,,0.00,pywws,2013-09-19 04:00:00,
2013-09-19 00:01:00,55.0,49.3,30.29,West,270,0.0,0.0,81,0.00,,,0.00,pywws,2013-09-19 04:01:00,
2013-09-19 00:03:00,55.0,49.3,30.29,West,270,0.0,0.0,81,0.00,,,0.00,pywws,2013-09-19 04:03:00,
2013-09-19 00:04:00,55.0,49.3,30.29,West,270,0.0,0.0,81,0.00,,,0.00,pywws,2013-09-19 04:04:00,
2013-09-19 00:06:00,55.0,49.3,30.29,West,270,0.0,0.0,81,0.00,,,0.00,pywws,2013-09-19 04:06:00,
2013-09-19 00:08:00,54.7,49.0,30.29,West,270,0.0,0.0,81,0.00,,,0.00,pywws,2013-09-19 04:08:00,
2013-09-19 00:14:00,54.5,49.1,30.28,West,270,0.0,0.0,82,0.00,,,0.00,pywws,2013-09-19 04:14:00,
2013-09-19 00:15:00,54.5,49.1,30.28,West,270,0.0,0.0,82,0.00,,,0.00,pywws,2013-09-19 04:15:00,
2013-09-19 00:20:00,54.3,48.9,30.29,West,270,0.0,0.0,82,0.00,,,0.00,pywws,2013-09-19 04:20:00,
2013-09-19 00:26:00,54.1,48.8,30.28,SE,135,0.0,0.0,82,0.00,,,0.00,pywws,2013-09-19 04:26:00,
2013-09-19 00:32:00,54.0,48.6,30.28,SE,135,0.0,0.0,82,0.00,,,0.00,pywws,2013-09-19 04:32:00,
2013-09-19 00:38:00,53.8,48.4,30.28,SW,225,1.6,2.2,82,0.00,,,0.00,pywws,2013-09-19 04:38:00,
2013-09-19 00:44:00,53.8,48.7,30.28,South,180,0.0,0.7,83,0.00,,,0.00,pywws,2013-09-19 04:44:00,
2013-09-19 00:49:00,53.6,48.6,30.28,South,180,0.0,0.0,83,0.00,,,0.00,pywws,2013-09-19 04:49:00,
2013-09-19 00:55:00,53.4,48.7,30.29,South,180,0.0,0.0,84,0.00,,,0.00,pywws,2013-09-19 04:55:00,
2013-09-19 01:00:00,53.4,48.7,30.28,South,180,0.0,0.0,84,0.00,,,0.00,pywws,2013-09-19 05:00:00,
2013-09-19 01:06:00,53.2,48.5,30.29,South,180,0.0,0.0,84,0.00,,,0.00,pywws,2013-09-19 05:06:00,
2013-09-19 01:12:00,53.1,48.7,30.28,SE,135,0.0,1.6,85,0.00,,,0.00,pywws,2013-09-19 05:12:00,
2013-09-19 01:17:00,53.1,48.7,30.29,SE,135,0.0,0.0,85,0.00,,,0.00,pywws,2013-09-19 05:17:00,
2013-09-19 01:23:00,52.9,48.5,30.29,SE,135,0.0,0.0,85,0.00,,,0.00,pywws,2013-09-19 05:23:00,
2013-09-19 01:28:00,52.9,48.5,30.29,SE,135,0.0,0.0,85,0.00,,,0.00,pywws,2013-09-19 05:28:00,
2013-09-19 01:34:00,52.7,48.3,30.29,South,180,0.0,0.0,85,0.00,,,0.00,pywws,2013-09-19 05:34:00,
2013-09-19 01:40:00,52.7,48.3,30.29,South,180,0.0,0.0,85,0.00,,,0.00,pywws,2013-09-19 05:40:00,
2013-09-19 01:46:00,52.5,48.5,30.29,South,180,0.0,0.7,86,0.00,,,0.00,pywws,2013-09-19 05:46:00,
2013-09-19 01:52:00,52.3,48.3,30.29,South,180,0.0,0.0,86,0.00,,,0.00,pywws,2013-09-19 05:52:00,
2013-09-19 01:58:00,52.3,48.3,30.28,SE,135,0.0,0.0,86,0.00,,,0.00,pywws,2013-09-19 05:58:00,
2013-09-19 02:04:00,52.3,48.3,30.28,SE,135,0.0,0.0,86,0.00,,,0.00,pywws,2013-09-19 06:04:00,
2013-09-19 02:10:00,52.2,48.1,30.28,SE,135,0.0,0.0,86,0.00,,,0.00,pywws,2013-09-19 06:10:00,
2013-09-19 02:16:00,52.0,48.2,30.28,SE,135,0.0,0.0,87,0.00,,,0.00,pywws,2013-09-19 06:16:00,
2013-09-19 02:21:00,52.0,48.2,30.28,West,270,0.0,0.0,87,0.00,,,0.00,pywws,2013-09-19 06:21:00,
2013-09-19 02:27:00,51.8,48.1,30.28,South,180,0.0,0.0,87,0.00,,,0.00,pywws,2013-09-19 06:27:00,
2013-09-19 02:32:00,51.8,48.1,30.27,South,180,0.0,0.0,87,0.00,,,0.00,pywws,2013-09-19 06:32:00,
2013-09-19 02:38:00,51.6,48.2,30.27,South,180,0.0,0.0,88,0.00,,,0.00,pywws,2013-09-19 06:38:00,
2013-09-19 02:44:00,51.4,48.0,30.27,NW,315,0.0,0.0,88,0.00,,,0.00,pywws,2013-09-19 06:44:00,
2013-09-19 02:50:00,51.4,48.3,30.27,NW,315,0.0,0.0,89,0.00,,,0.00,pywws,2013-09-19 06:50:00,
2013-09-19 02:56:00,51.3,48.1,30.28,NW,315,0.0,0.0,89,0.00,,,0.00,pywws,2013-09-19 06:56:00,
2013-09-19 03:01:00,51.1,48.0,30.27,NW,315,0.0,0.0,89,0.00,,,0.00,pywws,2013-09-19 07:01:00,
2013-09-19 03:08:00,50.9,47.8,30.27,NW,315,0.0,0.0,89,0.00,,,0.00,pywws,2013-09-19 07:08:00,
2013-09-19 03:13:00,50.7,47.6,30.27,North,0,0.0,0.0,89,0.00,,,0.00,pywws,2013-09-19 07:13:00,
2013-09-19 03:19:00,50.5,47.4,30.27,NW,315,0.0,0.0,89,0.00,,,0.00,pywws,2013-09-19 07:19:00,
2013-09-19 03:24:00,50.4,47.2,30.27,NW,315,0.0,0.0,89,0.00,,,0.00,pywws,2013-09-19 07:24:00,
2013-09-19 03:30:00,50.2,47.1,30.26,NW,315,0.0,0.0,89,0.00,,,0.00,pywws,2013-09-19 07:30:00,
2013-09-19 03:36:00,50.2,47.4,30.26,NW,315,0.0,0.0,90,0.00,,,0.00,pywws,2013-09-19 07:36:00,
2013-09-19 03:41:00,50.2,47.4,30.27,NE,45,0.0,0.0,90,0.00,,,0.00,pywws,2013-09-19 07:41:00,
2013-09-19 03:48:00,50.0,47.2,30.27,NE,45,0.0,0.0,90,0.00,,,0.00,pywws,2013-09-19 07:48:00,
2013-09-19 03:53:00,49.8,47.3,30.27,NE,45,0.0,0.0,91,0.00,,,0.00,pywws,2013-09-19 07:53:00,
2013-09-19 03:59:00,49.8,47.6,30.27,NE,45,0.0,0.0,92,0.00,,,0.00,pywws,2013-09-19 07:59:00,
2013-09-19 04:04:00,49.8,47.6,30.27,NE,45,0.0,0.0,92,0.00,,,0.00,pywws,2013-09-19 08:04:00,
2013-09-19 04:10:00,49.8,47.6,30.27,SW,225,0.0,0.0,92,0.00,,,0.00,pywws,2013-09-19 08:10:00,
2013-09-19 04:16:00,49.8,47.6,30.27,SW,225,0.0,0.7,92,0.00,,,0.00,pywws,2013-09-19 08:16:00,
2013-09-19 04:21:00,49.6,47.4,30.27,NW,315,0.0,0.0,92,0.00,,,0.00,pywws,2013-09-19 08:21:00,
2013-09-19 04:28:00,49.6,47.4,30.27,SW,225,0.0,0.0,92,0.00,,,0.00,pywws,2013-09-19 08:28:00,
2013-09-19 04:33:00,49.6,47.4,30.27,SW,225,0.0,0.0,92,0.00,,,0.00,pywws,2013-09-19 08:33:00,
2013-09-19 04:39:00,49.6,47.4,30.27,SW,225,0.0,0.0,92,0.00,,,0.00,pywws,2013-09-19 08:39:00,
2013-09-19 04:44:00,49.6,47.4,30.27,SW,225,0.0,0.0,92,0.00,,,0.00,pywws,2013-09-19 08:44:00,
2013-09-19 04:50:00,49.5,47.2,30.27,SW,225,0.0,0.0,92,0.00,,,0.00,pywws,2013-09-19 08:50:00,
2013-09-19 04:56:00,49.3,47.1,30.27,SW,225,0.0,0.0,92,0.00,,,0.00,pywws,2013-09-19 08:56:00,
2013-09-19 05:01:00,49.3,47.1,30.27,SW,225,0.0,0.0,92,0.00,,,0.00,pywws,2013-09-19 09:01:00,
2013-09-19 05:08:00,49.1,46.9,30.27,SW,225,0.0,0.0,92,0.00,,,0.00,pywws,2013-09-19 09:08:00,
2013-09-19 05:14:00,48.9,46.7,30.27,SW,225,0.0,0.0,92,0.00,,,0.00,pywws,2013-09-19 09:14:00,
2013-09-19 05:20:00,48.7,46.5,30.27,North,0,0.0,0.0,92,0.00,,,0.00,pywws,2013-09-19 09:20:00,
2013-09-19 05:26:00,48.6,46.3,30.27,North,0,0.0,0.0,92,0.00,,,0.00,pywws,2013-09-19 09:26:00,
2013-09-19 05:32:00,48.4,46.2,30.27,North,0,0.0,0.0,92,0.00,,,0.00,pywws,2013-09-19 09:32:00,
2013-09-19 05:38:00,48.4,46.2,30.27,North,0,0.0,0.0,92,0.00,,,0.00,pywws,2013-09-19 09:38:00,
2013-09-19 05:44:00,48.2,46.3,30.26,North,0,0.0,0.0,93,0.00,,,0.00,pywws,2013-09-19 09:44:00,
2013-09-19 05:49:00,48.2,46.3,30.27,South,180,0.0,0.0,93,0.00,,,0.00,pywws,2013-09-19 09:49:00,
2013-09-19 05:55:00,48.0,46.4,30.27,NW,315,0.0,0.0,94,0.00,,,0.00,pywws,2013-09-19 09:55:00,
2013-09-19 06:01:00,48.0,46.4,30.27,NW,315,1.6,2.2,94,0.00,,,0.00,pywws,2013-09-19 10:01:00,
2013-09-19 06:06:00,47.8,46.2,30.27,SW,225,0.0,0.7,94,0.00,,,0.00,pywws,2013-09-19 10:06:00,
2013-09-19 06:12:00,47.8,46.2,30.27,SW,225,0.0,0.0,94,0.00,,,0.00,pywws,2013-09-19 10:12:00,
2013-09-19 06:17:00,47.8,46.2,30.27,SW,225,0.7,1.6,94,0.00,,,0.00,pywws,2013-09-19 10:17:00,
2013-09-19 06:23:00,47.8,46.2,30.27,SW,225,0.7,1.6,94,0.00,,,0.00,pywws,2013-09-19 10:23:00,
2013-09-19 06:28:00,47.8,46.2,30.27,West,270,0.0,0.7,94,0.00,,,0.00,pywws,2013-09-19 10:28:00,
2013-09-19 06:34:00,47.8,46.2,30.27,South,180,0.0,0.7,94,0.00,,,0.00,pywws,2013-09-19 10:34:00,
2013-09-19 06:40:00,47.7,46.0,30.27,South,180,0.0,0.0,94,0.00,,,0.00,pywws,2013-09-19 10:40:00,
2013-09-19 06:46:00,47.7,46.0,30.27,South,180,0.0,0.0,94,0.00,,,0.00,pywws,2013-09-19 10:46:00,
2013-09-19 06:52:00,47.7,46.0,30.28,South,180,0.0,0.0,94,0.00,,,0.00,pywws,2013-09-19 10:52:00,
2013-09-19 06:58:00,47.7,46.0,30.28,SW,225,0.0,0.0,94,0.00,,,0.00,pywws,2013-09-19 10:58:00,
2013-09-19 07:04:00,47.8,46.2,30.28,SW,225,0.0,0.0,94,0.00,,,0.00,pywws,2013-09-19 11:04:00,
2013-09-19 07:09:00,47.8,46.2,30.27,SW,225,0.0,0.0,94,0.00,,,0.00,pywws,2013-09-19 11:09:00,
2013-09-19 07:15:00,47.8,46.2,30.28,SW,225,0.0,0.0,94,0.00,,,0.00,pywws,2013-09-19 11:15:00,
2013-09-19 07:20:00,48.0,46.7,30.27,SW,225,0.0,0.0,95,0.00,,,0.00,pywws,2013-09-19 11:20:00,
2013-09-19 07:26:00,48.2,46.6,30.27,SW,225,0.0,0.0,94,0.00,,,0.00,pywws,2013-09-19 11:26:00,
2013-09-19 07:32:00,48.4,46.7,30.27,SW,225,0.0,0.0,94,0.00,,,0.00,pywws,2013-09-19 11:32:00,
2013-09-19 07:37:00,48.6,46.9,30.27,NE,45,0.0,0.0,94,0.00,,,0.00,pywws,2013-09-19 11:37:00,
2013-09-19 07:43:00,48.9,47.3,30.27,North,0,0.0,0.0,94,0.00,,,0.00,pywws,2013-09-19 11:43:00,
2013-09-19 07:48:00,49.5,47.8,30.27,North,0,0.7,1.6,94,0.00,,,0.00,pywws,2013-09-19 11:48:00,
2013-09-19 07:54:00,50.2,48.2,30.27,North,0,0.7,1.6,93,0.00,,,0.00,pywws,2013-09-19 11:54:00,
2013-09-19 08:00:00,50.9,48.9,30.27,West,270,0.0,1.6,93,0.00,,,0.00,pywws,2013-09-19 12:00:00,
2013-09-19 08:06:00,51.6,49.4,30.27,West,270,0.0,0.7,92,0.00,,,0.00,pywws,2013-09-19 12:06:00,
2013-09-19 08:12:00,52.7,50.1,30.27,SW,225,0.7,1.6,91,0.00,,,0.00,pywws,2013-09-19 12:12:00,
2013-09-19 08:17:00,53.6,50.4,30.27,SW,225,1.6,2.2,89,0.00,,,0.00,pywws,2013-09-19 12:17:00,
2013-09-19 08:23:00,54.7,50.9,30.27,SW,225,0.7,1.6,87,0.00,,,0.00,pywws,2013-09-19 12:23:00,
2013-09-19 08:28:00,55.9,51.8,30.27,SW,225,0.7,2.2,86,0.00,,,0.00,pywws,2013-09-19 12:28:00,
2013-09-19 08:34:00,57.0,51.9,30.27,West,270,0.7,2.2,83,0.00,,,0.00,pywws,2013-09-19 12:34:00,
2013-09-19 08:40:00,57.7,50.9,30.27,SW,225,0.7,1.6,78,0.00,,,0.00,pywws,2013-09-19 12:40:00,
2013-09-19 08:45:00,58.6,51.1,30.26,SW,225,1.6,2.2,76,0.00,,,0.00,pywws,2013-09-19 12:45:00,
2013-09-19 08:51:00,59.5,51.2,30.27,NW,315,0.0,1.6,74,0.00,,,0.00,pywws,2013-09-19 12:51:00,
2013-09-19 08:56:00,60.1,51.4,30.27,SW,225,4.5,6.0,73,0.00,,,0.00,pywws,2013-09-19 12:56:00,
2013-09-19 09:02:00,60.8,51.0,30.27,West,270,3.1,3.8,70,0.00,,,0.00,pywws,2013-09-19 13:02:00,
2013-09-19 09:08:00,61.2,50.5,30.27,NW,315,3.1,4.5,68,0.00,,,0.00,pywws,2013-09-19 13:08:00,
2013-09-19 09:13:00,61.2,50.5,30.27,West,270,2.2,3.8,68,0.00,,,0.00,pywws,2013-09-19 13:13:00,
2013-09-19 09:19:00,61.9,50.4,30.27,SW,225,2.2,3.8,66,0.00,,,0.00,pywws,2013-09-19 13:19:00,
2013-09-19 09:24:00,62.2,50.7,30.27,SW,225,3.8,4.5,66,0.00,,,0.00,pywws,2013-09-19 13:24:00,
2013-09-19 09:30:00,63.0,50.6,30.27,NW,315,2.2,3.1,64,0.00,,,0.00,pywws,2013-09-19 13:30:00,
2013-09-19 09:36:00,62.8,50.0,30.27,West,270,1.6,3.1,63,0.00,,,0.00,pywws,2013-09-19 13:36:00,
2013-09-19 09:41:00,63.1,50.3,30.27,SW,225,2.2,3.8,63,0.00,,,0.00,pywws,2013-09-19 13:41:00,
2013-09-19 09:47:00,63.9,51.0,30.27,South,180,2.2,3.8,63,0.00,,,0.00,pywws,2013-09-19 13:47:00,
2013-09-19 09:52:00,64.6,51.3,30.27,North,0,1.6,3.1,62,0.00,,,0.00,pywws,2013-09-19 13:52:00,
2013-09-19 09:58:00,64.8,51.4,30.27,NNW,338,1.6,2.2,62,0.00,,,0.00,pywws,2013-09-19 13:58:00,
2013-09-19 10:04:00,65.1,51.3,30.27,SW,225,2.2,3.8,61,0.00,,,0.00,pywws,2013-09-19 14:04:00,
2013-09-19 10:10:00,65.8,51.1,30.27,NW,315,1.6,2.2,59,0.00,,,0.00,pywws,2013-09-19 14:10:00,
2013-09-19 10:16:00,66.9,51.7,30.26,West,270,1.6,3.1,58,0.00,,,0.00,pywws,2013-09-19 14:16:00,
2013-09-19 10:21:00,67.3,51.0,30.26,NW,315,1.6,3.1,56,0.00,,,0.00,pywws,2013-09-19 14:21:00,
2013-09-19 10:27:00,67.3,51.0,30.26,WNW,292,0.7,2.2,56,0.00,,,0.00,pywws,2013-09-19 14:27:00,
2013-09-19 10:32:00,67.6,51.4,30.26,NW,315,2.2,3.8,56,0.00,,,0.00,pywws,2013-09-19 14:32:00,
2013-09-19 10:38:00,68.0,50.7,30.26,NE,45,1.6,3.1,54,0.00,,,0.00,pywws,2013-09-19 14:38:00,
2013-09-19 10:44:00,67.6,50.9,30.26,West,270,1.6,3.1,55,0.00,,,0.00,pywws,2013-09-19 14:44:00,
2013-09-19 10:49:00,68.2,51.4,30.25,SW,225,0.0,1.6,55,0.00,,,0.00,pywws,2013-09-19 14:49:00,
2013-09-19 10:55:00,68.9,51.6,30.25,NW,315,3.8,4.5,54,0.00,,,0.00,pywws,2013-09-19 14:55:00,
2013-09-19 11:00:00,69.3,51.4,30.25,NW,315,1.6,3.8,53,0.00,,,0.00,pywws,2013-09-19 15:00:00,
2013-09-19 11:06:00,69.6,52.2,30.25,North,0,2.2,3.1,54,0.00,,,0.00,pywws,2013-09-19 15:06:00,
2013-09-19 11:12:00,69.6,51.7,30.25,WSW,248,1.6,3.1,53,0.00,,,0.00,pywws,2013-09-19 15:12:00,
2013-09-19 11:17:00,70.3,51.3,30.25,South,180,1.6,3.8,51,0.00,,,0.00,pywws,2013-09-19 15:17:00,
2013-09-19 11:23:00,70.9,51.8,30.24,NW,315,3.1,4.5,51,0.00,,,0.00,pywws,2013-09-19 15:23:00,
2013-09-19 11:28:00,70.9,52.4,30.24,North,0,1.6,3.1,52,0.00,,,0.00,pywws,2013-09-19 15:28:00,
2013-09-19 11:34:00,71.6,52.5,30.25,NW,315,0.7,1.6,51,0.00,,,0.00,pywws,2013-09-19 15:34:00,
2013-09-19 11:40:00,72.0,51.2,30.25,West,270,1.6,3.1,48,0.00,,,0.00,pywws,2013-09-19 15:40:00,
2013-09-19 11:45:00,72.0,51.2,30.24,North,0,0.7,3.1,48,0.00,,,0.00,pywws,2013-09-19 15:45:00,
2013-09-19 11:51:00,72.1,51.9,30.24,East,90,0.7,2.2,49,0.00,,,0.00,pywws,2013-09-19 15:51:00,
2013-09-19 11:56:00,72.5,51.1,30.24,SW,225,0.7,2.2,47,0.00,,,0.00,pywws,2013-09-19 15:56:00,
2013-09-19 12:02:00,72.9,50.9,30.24,North,0,3.1,3.8,46,0.00,,,0.00,pywws,2013-09-19 16:02:00,
2013-09-19 12:08:00,72.7,50.1,30.24,WNW,292,1.6,2.2,45,0.00,,,0.00,pywws,2013-09-19 16:08:00,
2013-09-19 12:13:00,72.5,49.9,30.24,SE,135,0.7,1.6,45,0.00,,,0.00,pywws,2013-09-19 16:13:00,
2013-09-19 12:19:00,73.0,51.6,30.24,North,0,0.7,1.6,47,0.00,,,0.00,pywws,2013-09-19 16:19:00,
2013-09-19 12:24:00,73.4,51.3,30.24,NW,315,3.8,4.5,46,0.00,,,0.00,pywws,2013-09-19 16:24:00,
2013-09-19 12:30:00,73.6,51.5,30.24,West,270,3.1,5.4,46,0.00,,,0.00,pywws,2013-09-19 16:30:00,
2013-09-19 12:36:00,73.9,51.8,30.23,WSW,248,3.8,5.4,46,0.00,,,0.00,pywws,2013-09-19 16:36:00,
2013-09-19 12:41:00,73.9,51.8,30.23,NW,315,3.8,5.4,46,0.00,,,0.00,pywws,2013-09-19 16:41:00,
2013-09-19 12:47:00,73.8,51.1,30.23,SW,225,1.6,3.1,45,0.00,,,0.00,pywws,2013-09-19 16:47:00,
2013-09-19 12:52:00,74.1,51.4,30.23,West,270,2.2,3.8,45,0.00,,,0.00,pywws,2013-09-19 16:52:00,
2013-09-19 12:58:00,74.7,51.9,30.23,South,180,3.1,4.5,45,0.00,,,0.00,pywws,2013-09-19 16:58:00,
2013-09-19 13:04:00,75.0,52.2,30.22,SW,225,4.5,6.9,45,0.00,,,0.00,pywws,2013-09-19 17:04:00,
2013-09-19 13:09:00,75.2,51.1,30.22,NW,315,1.6,3.8,43,0.00,,,0.00,pywws,2013-09-19 17:09:00,
2013-09-19 13:15:00,75.2,51.8,30.22,South,180,3.1,6.0,44,0.00,,,0.00,pywws,2013-09-19 17:15:00,
2013-09-19 13:20:00,75.2,51.1,30.22,SW,225,2.2,3.8,43,0.00,,,0.00,pywws,2013-09-19 17:20:00,
2013-09-19 13:26:00,75.7,52.3,30.22,WSW,248,4.5,6.0,44,0.00,,,0.00,pywws,2013-09-19 17:26:00,
2013-09-19 13:32:00,76.1,52.0,30.22,SW,225,5.4,6.0,43,0.00,,,0.00,pywws,2013-09-19 17:32:00,
2013-09-19 13:37:00,76.5,52.3,30.22,West,270,1.6,3.1,43,0.00,,,0.00,pywws,2013-09-19 17:37:00,
2013-09-19 13:43:00,76.5,51.6,30.21,West,270,3.8,5.4,42,0.00,,,0.00,pywws,2013-09-19 17:43:00,
2013-09-19 13:48:00,76.5,51.6,30.21,NNW,338,3.1,4.5,42,0.00,,,0.00,pywws,2013-09-19 17:48:00,
2013-09-19 13:54:00,76.3,50.8,30.21,West,270,5.4,7.6,41,0.00,,,0.00,pywws,2013-09-19 17:54:00,
2013-09-19 14:00:00,75.9,50.5,30.20,NE,45,0.7,1.6,41,0.00,,,0.00,pywws,2013-09-19 18:00:00,
2013-09-19 14:06:00,75.9,51.2,30.20,West,270,3.8,5.4,42,0.00,,,0.00,pywws,2013-09-19 18:06:00,
2013-09-19 14:12:00,75.7,51.0,30.20,NE,45,0.7,2.2,42,0.00,,,0.00,pywws,2013-09-19 18:12:00,
2013-09-19 14:17:00,75.9,52.4,30.20,NW,315,3.1,4.5,44,0.00,,,0.00,pywws,2013-09-19 18:17:00,
2013-09-19 14:22:00,76.1,52.6,30.19,SW,225,3.1,5.4,44,0.00,,,0.00,pywws,2013-09-19 18:22:00,
2013-09-19 14:28:00,76.5,52.9,30.19,NE,45,1.6,2.2,44,0.00,,,0.00,pywws,2013-09-19 18:28:00,
2013-09-19 14:33:00,76.5,52.9,30.19,SW,225,6.0,9.2,44,0.00,,,0.00,pywws,2013-09-19 18:33:00,
2013-09-19 14:39:00,76.6,52.4,30.19,North,0,1.6,2.2,43,0.00,,,0.00,pywws,2013-09-19 18:39:00,
2013-09-19 14:44:00,76.6,52.4,30.19,East,90,2.2,3.1,43,0.00,,,0.00,pywws,2013-09-19 18:44:00,
2013-09-19 14:50:00,76.5,52.9,30.19,West,270,6.0,8.3,44,0.00,,,0.00,pywws,2013-09-19 18:50:00,
2013-09-19 14:55:00,76.5,51.6,30.18,SE,135,0.7,1.6,42,0.00,,,0.00,pywws,2013-09-19 18:55:00,
2013-09-19 15:01:00,76.5,52.9,30.18,South,180,1.6,3.1,44,0.00,,,0.00,pywws,2013-09-19 19:01:00,
2013-09-19 15:07:00,76.5,52.3,30.18,South,180,3.1,3.8,43,0.00,,,0.00,pywws,2013-09-19 19:07:00,
2013-09-19 15:12:00,76.3,50.8,30.18,East,90,0.7,2.2,41,0.00,,,0.00,pywws,2013-09-19 19:12:00,
2013-09-19 15:18:00,76.1,52.0,30.18,ESE,112,1.6,3.8,43,0.00,,,0.00,pywws,2013-09-19 19:18:00,
2013-09-19 15:23:00,76.3,52.1,30.18,SW,225,4.5,6.0,43,0.00,,,0.00,pywws,2013-09-19 19:23:00,
2013-09-19 15:30:00,76.3,49.5,30.17,West,270,3.8,6.0,39,0.00,,,0.00,pywws,2013-09-19 19:30:00,
2013-09-19 15:35:00,76.3,50.2,30.17,West,270,3.8,5.4,40,0.00,,,0.00,pywws,2013-09-19 19:35:00,
2013-09-19 15:40:00,76.3,50.2,30.17,NW,315,5.4,6.9,40,0.00,,,0.00,pywws,2013-09-19 19:40:00,
2013-09-19 15:46:00,76.5,51.0,30.17,West,270,1.6,3.1,41,0.00,,,0.00,pywws,2013-09-19 19:46:00,
2013-09-19 15:51:00,76.6,52.4,30.16,SE,135,0.7,2.2,43,0.00,,,0.00,pywws,2013-09-19 19:51:00,
2013-09-19 15:57:00,76.6,51.8,30.16,SSE,158,2.2,3.8,42,0.00,,,0.00,pywws,2013-09-19 19:57:00,
2013-09-19 16:03:00,76.6,51.2,30.16,SE,135,1.6,3.1,41,0.00,,,0.00,pywws,2013-09-19 20:03:00,
2013-09-19 16:08:00,76.6,52.4,30.16,South,180,0.7,1.6,43,0.00,,,0.00,pywws,2013-09-19 20:08:00,
2013-09-19 16:14:00,76.8,52.0,30.16,SW,225,3.1,4.5,42,0.00,,,0.00,pywws,2013-09-19 20:14:00,
2013-09-19 16:19:00,77.0,50.8,30.16,NW,315,4.5,6.9,40,0.00,,,0.00,pywws,2013-09-19 20:19:00,
2013-09-19 16:25:00,77.0,52.1,30.16,South,180,3.8,5.4,42,0.00,,,0.00,pywws,2013-09-19 20:25:00,
2013-09-19 16:31:00,77.0,52.1,30.16,ESE,112,1.6,3.1,42,0.00,,,0.00,pywws,2013-09-19 20:31:00,
2013-09-19 16:36:00,77.0,52.8,30.16,South,180,3.1,4.5,43,0.00,,,0.00,pywws,2013-09-19 20:36:00,
2013-09-19 16:42:00,76.8,52.6,30.16,SW,225,3.1,4.5,43,0.00,,,0.00,pywws,2013-09-19 20:42:00,
2013-09-19 16:48:00,76.6,53.1,30.16,West,270,0.7,0.7,44,0.00,,,0.00,pywws,2013-09-19 20:48:00,
2013-09-19 16:54:00,76.6,53.1,30.16,North,0,2.2,5.4,44,0.00,,,0.00,pywws,2013-09-19 20:54:00,
2013-09-19 16:59:00,76.8,53.2,30.16,South,180,4.5,7.6,44,0.00,,,0.00,pywws,2013-09-19 20:59:00,
2013-09-19 17:05:00,76.6,53.1,30.16,South,180,3.1,4.5,44,0.00,,,0.00,pywws,2013-09-19 21:05:00,
2013-09-19 17:11:00,76.6,53.1,30.16,SSE,158,0.0,0.7,44,0.00,,,0.00,pywws,2013-09-19 21:11:00,
2013-09-19 17:16:00,76.5,52.9,30.15,NW,315,3.8,4.5,44,0.00,,,0.00,pywws,2013-09-19 21:16:00,
2013-09-19 17:22:00,76.3,52.7,30.16,SW,225,3.8,6.9,44,0.00,,,0.00,pywws,2013-09-19 21:22:00,
2013-09-19 17:28:00,75.9,52.4,30.16,West,270,4.5,6.9,44,0.00,,,0.00,pywws,2013-09-19 21:28:00,
2013-09-19 17:34:00,75.7,52.3,30.16,South,180,3.8,7.6,44,0.00,,,0.00,pywws,2013-09-19 21:34:00,
2013-09-19 17:39:00,75.7,52.3,30.15,West,270,4.5,7.6,44,0.00,,,0.00,pywws,2013-09-19 21:39:00,
2013-09-19 17:45:00,75.4,52.5,30.16,East,90,3.1,6.9,45,0.00,,,0.00,pywws,2013-09-19 21:45:00,
2013-09-19 17:51:00,75.0,53.4,30.16,South,180,0.7,1.6,47,0.00,,,0.00,pywws,2013-09-19 21:51:00,
2013-09-19 17:56:00,74.3,53.3,30.16,West,270,0.7,2.2,48,0.00,,,0.00,pywws,2013-09-19 21:56:00,
2013-09-19 18:02:00,73.8,53.4,30.16,ESE,112,1.6,2.2,49,0.00,,,0.00,pywws,2013-09-19 22:02:00,
2013-09-19 18:08:00,73.2,54.0,30.16,NW,315,0.7,1.6,51,0.00,,,0.00,pywws,2013-09-19 22:08:00,
2013-09-19 18:14:00,72.7,53.5,30.16,SW,225,3.8,6.0,51,0.00,,,0.00,pywws,2013-09-19 22:14:00,
2013-09-19 18:19:00,72.1,53.0,30.16,SW,225,1.6,3.8,51,0.00,,,0.00,pywws,2013-09-19 22:19:00,
2013-09-19 18:25:00,71.8,53.2,30.16,South,180,0.7,1.6,52,0.00,,,0.00,pywws,2013-09-19 22:25:00,
2013-09-19 18:31:00,71.4,53.4,30.17,SSE,158,3.1,5.4,53,0.00,,,0.00,pywws,2013-09-19 22:31:00,
2013-09-19 18:36:00,70.9,53.4,30.17,SE,135,1.6,2.2,54,0.00,,,0.00,pywws,2013-09-19 22:36:00,
2013-09-19 18:42:00,70.5,53.1,30.17,SE,135,2.2,4.5,54,0.00,,,0.00,pywws,2013-09-19 22:42:00,
2013-09-19 18:48:00,70.0,53.1,30.17,SW,225,1.6,3.8,55,0.00,,,0.00,pywws,2013-09-19 22:48:00,
2013-09-19 18:53:00,69.6,53.2,30.17,South,180,0.0,1.6,56,0.00,,,0.00,pywws,2013-09-19 22:53:00,
2013-09-19 18:59:00,69.3,52.9,30.17,SW,225,2.2,3.8,56,0.00,,,0.00,pywws,2013-09-19 22:59:00,
2013-09-19 19:04:00,68.9,53.0,30.17,SSW,202,2.2,3.8,57,0.00,,,0.00,pywws,2013-09-19 23:04:00,
2013-09-19 19:10:00,68.4,52.5,30.17,SW,225,0.7,1.6,57,0.00,,,0.00,pywws,2013-09-19 23:10:00,
2013-09-19 19:15:00,68.0,52.7,30.17,South,180,0.7,3.8,58,0.00,,,0.00,pywws,2013-09-19 23:15:00,
2013-09-19 19:21:00,67.6,52.8,30.17,SW,225,0.7,1.6,59,0.00,,,0.00,pywws,2013-09-19 23:21:00,
2013-09-19 19:27:00,67.3,52.9,30.17,SW,225,1.6,2.2,60,0.00,,,0.00,pywws,2013-09-19 23:27:00,
2013-09-19 19:32:00,66.9,52.6,30.17,South,180,0.0,1.6,60,0.00,,,0.00,pywws,2013-09-19 23:32:00,
2013-09-19 19:38:00,66.6,52.7,30.18,South,180,0.7,1.6,61,0.00,,,0.00,pywws,2013-09-19 23:38:00,
2013-09-19 19:43:00,66.4,52.5,30.18,South,180,1.6,2.2,61,0.00,,,0.00,pywws,2013-09-19 23:43:00,
2013-09-19 19:49:00,66.0,53.1,30.18,SW,225,0.7,1.6,63,0.00,,,0.00,pywws,2013-09-19 23:49:00,
2013-09-19 19:55:00,65.7,52.7,30.18,South,180,0.0,0.7,63,0.00,,,0.00,pywws,2013-09-19 23:55:00,
2013-09-19 20:00:00,65.5,53.0,30.18,SW,225,0.0,1.6,64,0.00,,,0.00,pywws,2013-09-20 00:00:00,
2013-09-19 20:06:00,65.5,53.4,30.19,SE,135,0.7,1.6,65,0.00,,,0.00,pywws,2013-09-20 00:06:00,
2013-09-19 20:11:00,65.1,53.1,30.19,WSW,248,1.6,3.1,65,0.00,,,0.00,pywws,2013-09-20 00:11:00,
2013-09-19 20:17:00,64.9,52.9,30.19,South,180,0.7,1.6,65,0.00,,,0.00,pywws,2013-09-20 00:17:00,
2013-09-19 20:23:00,64.8,53.1,30.19,SW,225,0.7,1.6,66,0.00,,,0.00,pywws,2013-09-20 00:23:00,
2013-09-19 20:28:00,64.6,53.0,30.19,SW,225,1.6,1.6,66,0.00,,,0.00,pywws,2013-09-20 00:28:00,
2013-09-19 20:34:00,64.4,52.8,30.19,SSE,158,1.6,2.2,66,0.00,,,0.00,pywws,2013-09-20 00:34:00,
2013-09-19 20:39:00,64.2,53.0,30.19,SW,225,2.2,6.0,67,0.00,,,0.00,pywws,2013-09-20 00:39:00,
2013-09-19 20:45:00,64.0,53.3,30.19,SE,135,0.0,0.7,68,0.00,,,0.00,pywws,2013-09-20 00:45:00,
2013-09-19 20:51:00,63.9,53.5,30.19,South,180,0.0,1.6,69,0.00,,,0.00,pywws,2013-09-20 00:51:00,
2013-09-19 20:56:00,63.7,53.3,30.19,SW,225,0.7,1.6,69,0.00,,,0.00,pywws,2013-09-20 00:56:00,
2013-09-19 21:02:00,63.5,53.5,30.19,SE,135,0.7,2.2,70,0.00,,,0.00,pywws,2013-09-20 01:02:00,
2013-09-19 21:07:00,63.5,53.9,30.19,SW,225,0.0,1.6,71,0.00,,,0.00,pywws,2013-09-20 01:07:00,
2013-09-19 21:13:00,63.3,53.8,30.19,SW,225,0.0,0.0,71,0.00,,,0.00,pywws,2013-09-20 01:13:00,
2013-09-19 21:19:00,63.1,53.6,30.19,South,180,0.0,0.7,71,0.00,,,0.00,pywws,2013-09-20 01:19:00,
2013-09-19 21:24:00,63.0,53.8,30.19,South,180,0.0,0.7,72,0.00,,,0.00,pywws,2013-09-20 01:24:00,
2013-09-19 21:30:00,62.8,53.6,30.19,SW,225,0.0,0.7,72,0.00,,,0.00,pywws,2013-09-20 01:30:00,
2013-09-19 21:35:00,62.6,53.8,30.19,West,270,0.0,0.0,73,0.00,,,0.00,pywws,2013-09-20 01:35:00,
2013-09-19 21:41:00,62.4,54.0,30.19,SW,225,0.0,0.0,74,0.00,,,0.00,pywws,2013-09-20 01:41:00,
2013-09-19 21:47:00,62.2,53.8,30.19,WSW,248,0.0,0.7,74,0.00,,,0.00,pywws,2013-09-20 01:47:00,
2013-09-19 21:52:00,62.1,54.0,30.19,NW,315,0.0,0.0,75,0.00,,,0.00,pywws,2013-09-20 01:52:00,
2013-09-19 21:58:00,61.9,53.9,30.19,NW,315,0.0,0.0,75,0.00,,,0.00,pywws,2013-09-20 01:58:00,
2013-09-19 22:04:00,61.5,53.5,30.19,East,90,0.0,0.0,75,0.00,,,0.00,pywws,2013-09-20 02:04:00,
2013-09-19 22:10:00,61.3,53.7,30.18,East,90,0.0,0.0,76,0.00,,,0.00,pywws,2013-09-20 02:10:00,
2013-09-19 22:15:00,61.2,53.5,30.18,SE,135,0.0,0.0,76,0.00,,,0.00,pywws,2013-09-20 02:15:00,
2013-09-19 22:21:00,61.2,53.9,30.18,West,270,0.7,2.2,77,0.00,,,0.00,pywws,2013-09-20 02:21:00,
2013-09-19 22:27:00,61.0,54.1,30.18,SW,225,0.0,1.6,78,0.00,,,0.00,pywws,2013-09-20 02:27:00,
2013-09-19 22:32:00,60.8,53.9,30.18,SW,225,0.0,0.7,78,0.00,,,0.00,pywws,2013-09-20 02:32:00,
2013-09-19 22:38:00,60.8,53.9,30.18,SW,225,0.7,1.6,78,0.00,,,0.00,pywws,2013-09-20 02:38:00,
2013-09-19 22:43:00,60.6,54.1,30.18,South,180,0.0,0.7,79,0.00,,,0.00,pywws,2013-09-20 02:43:00,
2013-09-19 22:49:00,60.6,54.4,30.18,NW,315,0.0,0.7,80,0.00,,,0.00,pywws,2013-09-20 02:49:00,
2013-09-19 22:55:00,60.3,54.1,30.18,North,0,0.0,0.0,80,0.00,,,0.00,pywws,2013-09-20 02:55:00,
2013-09-19 23:00:00,60.1,54.2,30.18,North,0,0.0,0.0,81,0.00,,,0.00,pywws,2013-09-20 03:00:00,
2013-09-19 23:06:00,59.9,54.1,30.17,North,0,0.0,0.0,81,0.00,,,0.00,pywws,2013-09-20 03:06:00,
2013-09-19 23:11:00,59.7,53.9,30.18,North,0,0.0,0.0,81,0.00,,,0.00,pywws,2013-09-20 03:11:00,
2013-09-19 23:18:00,59.5,54.0,30.18,North,0,0.0,0.0,82,0.00,,,0.00,pywws,2013-09-20 03:18:00,
2013-09-19 23:24:00,59.5,54.4,30.18,North,0,0.0,0.0,83,0.00,,,0.00,pywws,2013-09-20 03:24:00,
2013-09-19 23:30:00,59.4,54.2,30.18,North,0,0.0,0.0,83,0.00,,,0.00,pywws,2013-09-20 03:30:00,
2013-09-19 23:35:00,59.2,54.0,30.18,North,0,0.0,0.0,83,0.00,,,0.00,pywws,2013-09-20 03:35:00,
2013-09-19 23:41:00,59.2,54.0,30.17,North,0,0.0,0.0,83,0.00,,,0.00,pywws,2013-09-20 03:41:00,
2013-09-19 23:47:00,59.0,53.8,30.17,North,0,0.0,0.0,83,0.00,,,0.00,pywws,2013-09-20 03:47:00,
2013-09-19 23:53:00,58.8,54.0,30.17,North,0,0.0,0.0,84,0.00,,,0.00,pywws,2013-09-20 03:53:00,
2013-09-19 23:59:00,58.6,53.8,30.17,North,0,0.0,0.0,84,0.00,,,0.00,pywws,2013-09-20 03:59:00,